sensor_id;sensor_type;location;lat;lon;timestamp;P1;durP1;ratioP1;P2;durP2;ratioP2
13250;SDS011;6692;50.710;7.180;2022-12-29T00:00:00;284.60;;;274.80;;
13250;SDS011;6692;50.710;7.180;2022-12-29T00:02:01;294.53;;;284.47;;
13250;SDS011;6692;50.710;7.180;2022-12-29T00:04:02;299.97;;;289.70;;
13250;SDS011;6692;50.710;7.180;2022-12-29T00:06:02;317.90;;;307.07;;
13250;SDS011;6692;50.710;7.180;2022-12-29T00:08:03;282.93;;;273.33;;
13250;SDS011;6692;50.710;7.180;2022-12-29T00:10:05;307.87;;;297.30;;
13250;SDS011;6692;50.710;7.180;2022-12-29T00:12:06;300.97;;;290.70;;
13250;SDS011;6692;50.710;7.180;2022-12-29T00:14:08;296.23;;;286.10;;
13250;SDS011;6692;50.710;7.180;2022-12-29T00:16:14;291.23;;;281.37;;
13250;SDS011;6692;50.710;7.180;2022-12-29T00:18:16;307.80;;;297.30;;
13250;SDS011;6692;50.710;7.180;2022-12-29T00:20:17;305.20;;;294.73;;
13250;SDS011;6692;50.710;7.180;2022-12-29T00:22:35;284.60;;;274.90;;
13250;SDS011;6692;50.710;7.180;2022-12-29T00:24:42;315.80;;;304.83;;
13250;SDS011;6692;50.710;7.180;2022-12-29T00:26:50;294.50;;;284.43;;
13250;SDS011;6692;50.710;7.180;2022-12-29T00:28:56;309.93;;;299.27;;
13250;SDS011;6692;50.710;7.180;2022-12-29T00:31:03;300.50;;;289.97;;
13250;SDS011;6692;50.710;7.180;2022-12-29T00:33:12;317.70;;;306.70;;
13250;SDS011;6692;50.710;7.180;2022-12-29T00:35:22;305.47;;;294.97;;
13250;SDS011;6692;50.710;7.180;2022-12-29T00:37:25;323.70;;;312.43;;
13250;SDS011;6692;50.710;7.180;2022-12-29T00:39:25;312.47;;;301.67;;
13250;SDS011;6692;50.710;7.180;2022-12-29T00:41:32;317.63;;;306.63;;
13250;SDS011;6692;50.710;7.180;2022-12-29T00:43:39;305.67;;;295.10;;
13250;SDS011;6692;50.710;7.180;2022-12-29T00:45:45;315.53;;;304.60;;
13250;SDS011;6692;50.710;7.180;2022-12-29T00:47:46;328.80;;;317.33;;
13250;SDS011;6692;50.710;7.180;2022-12-29T00:49:47;326.13;;;314.70;;
13250;SDS011;6692;50.710;7.180;2022-12-29T00:51:49;330.90;;;319.37;;
13250;SDS011;6692;50.710;7.180;2022-12-29T00:53:49;336.30;;;324.47;;
13250;SDS011;6692;50.710;7.180;2022-12-29T00:55:50;344.70;;;332.53;;
13250;SDS011;6692;50.710;7.180;2022-12-29T00:57:51;340.30;;;328.43;;
13250;SDS011;6692;50.710;7.180;2022-12-29T00:59:51;336.60;;;324.87;;
13250;SDS011;6692;50.710;7.180;2022-12-29T01:01:52;307.47;;;296.93;;
13250;SDS011;6692;50.710;7.180;2022-12-29T01:03:53;333.07;;;321.47;;
13250;SDS011;6692;50.710;7.180;2022-12-29T01:05:54;312.27;;;301.47;;
13250;SDS011;6692;50.710;7.180;2022-12-29T01:07:54;315.50;;;304.53;;
13250;SDS011;6692;50.710;7.180;2022-12-29T01:09:55;329.20;;;317.70;;
13250;SDS011;6692;50.710;7.180;2022-12-29T01:12:02;325.70;;;314.37;;
13250;SDS011;6692;50.710;7.180;2022-12-29T01:14:03;330.50;;;318.93;;
13250;SDS011;6692;50.710;7.180;2022-12-29T01:16:04;350.00;;;337.70;;
13250;SDS011;6692;50.710;7.180;2022-12-29T01:18:06;333.40;;;321.80;;
13250;SDS011;6692;50.710;7.180;2022-12-29T01:20:08;310.77;;;299.97;;
13250;SDS011;6692;50.710;7.180;2022-12-29T01:22:09;336.03;;;324.37;;
13250;SDS011;6692;50.710;7.180;2022-12-29T01:24:10;317.50;;;306.57;;
13250;SDS011;6692;50.710;7.180;2022-12-29T01:26:12;318.63;;;307.63;;
13250;SDS011;6692;50.710;7.180;2022-12-29T01:28:12;330.43;;;319.03;;
13250;SDS011;6692;50.710;7.180;2022-12-29T01:30:12;288.53;;;278.77;;
13250;SDS011;6692;50.710;7.180;2022-12-29T01:32:13;254.07;;;245.47;;
13250;SDS011;6692;50.710;7.180;2022-12-29T01:34:14;281.87;;;272.10;;
13250;SDS011;6692;50.710;7.180;2022-12-29T01:36:15;263.73;;;254.80;;
13250;SDS011;6692;50.710;7.180;2022-12-29T01:38:15;216.27;;;209.00;;
13250;SDS011;6692;50.710;7.180;2022-12-29T01:40:16;262.20;;;253.43;;
13250;SDS011;6692;50.710;7.180;2022-12-29T01:42:17;210.90;;;203.83;;
13250;SDS011;6692;50.710;7.180;2022-12-29T01:46:32;201.57;;;194.77;;
13250;SDS011;6692;50.710;7.180;2022-12-29T01:48:32;246.07;;;237.77;;
13250;SDS011;6692;50.710;7.180;2022-12-29T01:50:33;189.10;;;182.67;;
13250;SDS011;6692;50.710;7.180;2022-12-29T01:52:35;203.63;;;196.73;;
13250;SDS011;6692;50.710;7.180;2022-12-29T01:54:39;228.07;;;220.47;;
13250;SDS011;6692;50.710;7.180;2022-12-29T01:56:41;222.60;;;215.07;;
13250;SDS011;6692;50.710;7.180;2022-12-29T01:58:42;183.37;;;177.17;;
13250;SDS011;6692;50.710;7.180;2022-12-29T02:00:43;215.97;;;208.73;;
13250;SDS011;6692;50.710;7.180;2022-12-29T02:02:46;212.97;;;205.83;;
13250;SDS011;6692;50.710;7.180;2022-12-29T02:04:45;249.37;;;241.03;;
13250;SDS011;6692;50.710;7.180;2022-12-29T02:06:48;244.33;;;236.13;;
13250;SDS011;6692;50.710;7.180;2022-12-29T02:08:49;236.47;;;228.47;;
13250;SDS011;6692;50.710;7.180;2022-12-29T02:10:50;231.90;;;224.17;;
13250;SDS011;6692;50.710;7.180;2022-12-29T02:12:51;206.50;;;199.60;;
13250;SDS011;6692;50.710;7.180;2022-12-29T02:14:53;225.20;;;217.60;;
13250;SDS011;6692;50.710;7.180;2022-12-29T02:19:16;158.23;;;152.83;;
13250;SDS011;6692;50.710;7.180;2022-12-29T02:21:25;174.90;;;168.97;;
13250;SDS011;6692;50.710;7.180;2022-12-29T02:23:46;180.00;;;173.93;;
13250;SDS011;6692;50.710;7.180;2022-12-29T02:29:30;204.63;;;197.73;;
13250;SDS011;6692;50.710;7.180;2022-12-29T02:30:43;194.87;;;188.27;;
13250;SDS011;6692;50.710;7.180;2022-12-29T02:35:20;233.80;;;225.87;;
13250;SDS011;6692;50.710;7.180;2022-12-29T02:37:26;236.13;;;228.20;;
13250;SDS011;6692;50.710;7.180;2022-12-29T02:39:44;268.90;;;259.80;;
13250;SDS011;6692;50.710;7.180;2022-12-29T02:41:49;221.53;;;214.10;;
13250;SDS011;6692;50.710;7.180;2022-12-29T02:43:58;260.60;;;251.90;;
13250;SDS011;6692;50.710;7.180;2022-12-29T02:46:11;266.17;;;257.27;;
13250;SDS011;6692;50.710;7.180;2022-12-29T02:48:15;271.07;;;261.93;;
13250;SDS011;6692;50.710;7.180;2022-12-29T02:50:15;283.43;;;273.80;;
13250;SDS011;6692;50.710;7.180;2022-12-29T02:52:26;303.17;;;292.87;;
13250;SDS011;6692;50.710;7.180;2022-12-29T02:54:24;307.53;;;297.10;;
13250;SDS011;6692;50.710;7.180;2022-12-29T02:56:31;314.67;;;303.83;;
13250;SDS011;6692;50.710;7.180;2022-12-29T02:58:31;302.53;;;291.83;;
13250;SDS011;6692;50.710;7.180;2022-12-29T03:00:32;310.50;;;299.90;;
13250;SDS011;6692;50.710;7.180;2022-12-29T03:02:44;305.67;;;295.23;;
13250;SDS011;6692;50.710;7.180;2022-12-29T03:07:18;254.73;;;246.20;;
13250;SDS011;6692;50.710;7.180;2022-12-29T03:09:26;315.07;;;304.20;;
13250;SDS011;6692;50.710;7.180;2022-12-29T03:11:41;311.20;;;300.63;;
13250;SDS011;6692;50.710;7.180;2022-12-29T03:13:47;296.67;;;286.60;;
13250;SDS011;6692;50.710;7.180;2022-12-29T03:15:55;299.10;;;288.83;;
13250;SDS011;6692;50.710;7.180;2022-12-29T03:18:06;261.87;;;253.07;;
13250;SDS011;6692;50.710;7.180;2022-12-29T03:20:08;294.03;;;284.03;;
13250;SDS011;6692;50.710;7.180;2022-12-29T03:22:08;307.03;;;296.57;;
13250;SDS011;6692;50.710;7.180;2022-12-29T03:24:15;314.93;;;304.23;;
13250;SDS011;6692;50.710;7.180;2022-12-29T03:26:16;311.13;;;300.30;;
13250;SDS011;6692;50.710;7.180;2022-12-29T03:28:19;332.07;;;320.53;;
13250;SDS011;6692;50.710;7.180;2022-12-29T03:30:20;333.50;;;322.00;;
13250;SDS011;6692;50.710;7.180;2022-12-29T03:32:22;315.87;;;304.93;;
13250;SDS011;6692;50.710;7.180;2022-12-29T03:34:21;273.17;;;263.97;;
13250;SDS011;6692;50.710;7.180;2022-12-29T03:36:26;289.03;;;279.17;;
13250;SDS011;6692;50.710;7.180;2022-12-29T03:38:33;292.33;;;282.43;;
13250;SDS011;6692;50.710;7.180;2022-12-29T03:40:30;304.07;;;293.60;;
13250;SDS011;6692;50.710;7.180;2022-12-29T03:42:32;299.70;;;289.47;;
13250;SDS011;6692;50.710;7.180;2022-12-29T03:44:36;294.23;;;284.17;;
13250;SDS011;6692;50.710;7.180;2022-12-29T03:46:36;284.17;;;274.47;;
13250;SDS011;6692;50.710;7.180;2022-12-29T03:48:37;301.70;;;291.50;;
13250;SDS011;6692;50.710;7.180;2022-12-29T03:50:37;287.90;;;278.00;;
13250;SDS011;6692;50.710;7.180;2022-12-29T03:52:39;275.47;;;266.17;;
13250;SDS011;6692;50.710;7.180;2022-12-29T03:54:39;292.43;;;282.57;;
13250;SDS011;6692;50.710;7.180;2022-12-29T03:56:40;305.00;;;294.57;;
13250;SDS011;6692;50.710;7.180;2022-12-29T03:58:41;277.80;;;268.37;;
13250;SDS011;6692;50.710;7.180;2022-12-29T04:00:41;311.13;;;300.53;;
13250;SDS011;6692;50.710;7.180;2022-12-29T04:02:43;290.10;;;280.33;;
13250;SDS011;6692;50.710;7.180;2022-12-29T04:04:43;282.23;;;272.67;;
13250;SDS011;6692;50.710;7.180;2022-12-29T04:06:44;243.90;;;235.73;;
13250;SDS011;6692;50.710;7.180;2022-12-29T04:08:45;270.13;;;261.07;;
13250;SDS011;6692;50.710;7.180;2022-12-29T04:10:45;286.93;;;277.20;;
13250;SDS011;6692;50.710;7.180;2022-12-29T04:12:47;277.97;;;268.53;;
13250;SDS011;6692;50.710;7.180;2022-12-29T04:14:48;284.40;;;274.63;;
13250;SDS011;6692;50.710;7.180;2022-12-29T04:16:48;281.67;;;272.10;;
13250;SDS011;6692;50.710;7.180;2022-12-29T04:18:49;288.07;;;278.37;;
13250;SDS011;6692;50.710;7.180;2022-12-29T04:20:50;291.43;;;281.43;;
13250;SDS011;6692;50.710;7.180;2022-12-29T04:22:58;282.27;;;272.67;;
13250;SDS011;6692;50.710;7.180;2022-12-29T04:24:57;321.73;;;310.73;;
13250;SDS011;6692;50.710;7.180;2022-12-29T04:26:58;310.50;;;299.87;;
13250;SDS011;6692;50.710;7.180;2022-12-29T04:29:00;313.80;;;303.00;;
13250;SDS011;6692;50.710;7.180;2022-12-29T04:31:01;300.57;;;290.30;;
13250;SDS011;6692;50.710;7.180;2022-12-29T04:33:01;300.93;;;290.53;;
13250;SDS011;6692;50.710;7.180;2022-12-29T04:35:02;315.90;;;304.90;;
13250;SDS011;6692;50.710;7.180;2022-12-29T04:37:03;324.97;;;313.70;;
13250;SDS011;6692;50.710;7.180;2022-12-29T04:39:05;295.80;;;285.73;;
13250;SDS011;6692;50.710;7.180;2022-12-29T04:41:05;313.83;;;302.90;;
13250;SDS011;6692;50.710;7.180;2022-12-29T04:43:06;320.73;;;309.70;;
13250;SDS011;6692;50.710;7.180;2022-12-29T04:45:07;325.40;;;314.17;;
13250;SDS011;6692;50.710;7.180;2022-12-29T04:47:08;319.80;;;308.63;;
13250;SDS011;6692;50.710;7.180;2022-12-29T04:49:09;325.30;;;314.03;;
13250;SDS011;6692;50.710;7.180;2022-12-29T04:51:10;321.17;;;310.10;;
13250;SDS011;6692;50.710;7.180;2022-12-29T04:53:11;315.70;;;304.87;;
13250;SDS011;6692;50.710;7.180;2022-12-29T04:55:12;320.00;;;308.90;;
13250;SDS011;6692;50.710;7.180;2022-12-29T04:57:12;337.33;;;325.60;;
13250;SDS011;6692;50.710;7.180;2022-12-29T04:59:13;318.93;;;307.83;;
13250;SDS011;6692;50.710;7.180;2022-12-29T05:01:14;259.93;;;251.20;;
13250;SDS011;6692;50.710;7.180;2022-12-29T05:03:15;287.97;;;278.10;;
13250;SDS011;6692;50.710;7.180;2022-12-29T05:05:16;264.40;;;255.50;;
13250;SDS011;6692;50.710;7.180;2022-12-29T05:07:16;291.73;;;281.73;;
13250;SDS011;6692;50.710;7.180;2022-12-29T05:09:19;287.30;;;277.67;;
13250;SDS011;6692;50.710;7.180;2022-12-29T05:11:20;291.67;;;281.77;;
13250;SDS011;6692;50.710;7.180;2022-12-29T05:13:21;317.57;;;306.67;;
13250;SDS011;6692;50.710;7.180;2022-12-29T05:15:21;304.47;;;294.07;;
13250;SDS011;6692;50.710;7.180;2022-12-29T05:17:22;323.13;;;312.00;;
13250;SDS011;6692;50.710;7.180;2022-12-29T05:19:23;333.80;;;322.17;;
13250;SDS011;6692;50.710;7.180;2022-12-29T05:21:23;339.23;;;327.23;;
13250;SDS011;6692;50.710;7.180;2022-12-29T05:23:24;347.23;;;335.20;;
13250;SDS011;6692;50.710;7.180;2022-12-29T05:25:25;340.37;;;328.47;;
13250;SDS011;6692;50.710;7.180;2022-12-29T05:27:25;349.97;;;337.60;;
13250;SDS011;6692;50.710;7.180;2022-12-29T05:29:26;352.30;;;339.77;;
13250;SDS011;6692;50.710;7.180;2022-12-29T05:31:27;350.10;;;337.77;;
13250;SDS011;6692;50.710;7.180;2022-12-29T05:33:27;367.77;;;354.70;;
13250;SDS011;6692;50.710;7.180;2022-12-29T05:35:28;362.03;;;349.13;;
13250;SDS011;6692;50.710;7.180;2022-12-29T05:37:29;358.07;;;345.27;;
13250;SDS011;6692;50.710;7.180;2022-12-29T05:39:29;365.47;;;352.40;;
13250;SDS011;6692;50.710;7.180;2022-12-29T05:41:30;385.07;;;371.17;;
13250;SDS011;6692;50.710;7.180;2022-12-29T05:43:31;386.37;;;372.27;;
13250;SDS011;6692;50.710;7.180;2022-12-29T05:45:31;386.63;;;372.70;;
13250;SDS011;6692;50.710;7.180;2022-12-29T05:47:32;379.53;;;365.87;;
13250;SDS011;6692;50.710;7.180;2022-12-29T05:49:33;392.67;;;378.47;;
13250;SDS011;6692;50.710;7.180;2022-12-29T05:51:34;379.40;;;365.77;;
13250;SDS011;6692;50.710;7.180;2022-12-29T05:53:35;384.60;;;370.77;;
13250;SDS011;6692;50.710;7.180;2022-12-29T05:55:35;385.00;;;371.07;;
13250;SDS011;6692;50.710;7.180;2022-12-29T05:57:37;400.50;;;386.03;;
13250;SDS011;6692;50.710;7.180;2022-12-29T05:59:37;379.50;;;365.87;;
13250;SDS011;6692;50.710;7.180;2022-12-29T06:01:38;399.60;;;385.17;;
13250;SDS011;6692;50.710;7.180;2022-12-29T06:03:39;423.20;;;407.83;;
13250;SDS011;6692;50.710;7.180;2022-12-29T06:05:40;404.83;;;390.23;;
13250;SDS011;6692;50.710;7.180;2022-12-29T06:07:42;397.47;;;383.10;;
13250;SDS011;6692;50.710;7.180;2022-12-29T06:09:42;412.57;;;397.63;;
13250;SDS011;6692;50.710;7.180;2022-12-29T06:11:43;407.60;;;392.83;;
13250;SDS011;6692;50.710;7.180;2022-12-29T06:13:44;400.40;;;385.87;;
13250;SDS011;6692;50.710;7.180;2022-12-29T06:15:44;412.53;;;397.40;;
13250;SDS011;6692;50.710;7.180;2022-12-29T06:17:45;411.07;;;396.07;;
13250;SDS011;6692;50.710;7.180;2022-12-29T06:19:46;430.70;;;414.73;;
13250;SDS011;6692;50.710;7.180;2022-12-29T06:21:46;423.73;;;408.10;;
13250;SDS011;6692;50.710;7.180;2022-12-29T06:23:47;440.67;;;424.47;;
13250;SDS011;6692;50.710;7.180;2022-12-29T06:25:48;439.63;;;423.23;;
13250;SDS011;6692;50.710;7.180;2022-12-29T06:27:48;430.97;;;415.03;;
13250;SDS011;6692;50.710;7.180;2022-12-29T06:29:49;428.00;;;412.27;;
13250;SDS011;6692;50.710;7.180;2022-12-29T06:31:50;434.47;;;418.30;;
13250;SDS011;6692;50.710;7.180;2022-12-29T06:33:50;442.17;;;425.83;;
13250;SDS011;6692;50.710;7.180;2022-12-29T06:35:51;443.57;;;427.17;;
13250;SDS011;6692;50.710;7.180;2022-12-29T06:37:52;445.53;;;428.70;;
13250;SDS011;6692;50.710;7.180;2022-12-29T06:39:52;461.17;;;443.80;;
13250;SDS011;6692;50.710;7.180;2022-12-29T06:41:53;460.00;;;442.77;;
13250;SDS011;6692;50.710;7.180;2022-12-29T06:43:54;488.60;;;469.77;;
13250;SDS011;6692;50.710;7.180;2022-12-29T06:45:54;479.53;;;461.07;;
13250;SDS011;6692;50.710;7.180;2022-12-29T06:47:55;482.10;;;463.47;;
13250;SDS011;6692;50.710;7.180;2022-12-29T06:49:56;469.33;;;451.40;;
13250;SDS011;6692;50.710;7.180;2022-12-29T06:51:57;502.43;;;482.23;;
13250;SDS011;6692;50.710;7.180;2022-12-29T06:53:58;508.53;;;488.23;;
13250;SDS011;6692;50.710;7.180;2022-12-29T06:55:58;485.73;;;466.87;;
13250;SDS011;6692;50.710;7.180;2022-12-29T06:57:59;497.13;;;477.77;;
13250;SDS011;6692;50.710;7.180;2022-12-29T06:59:59;509.40;;;489.37;;
13250;SDS011;6692;50.710;7.180;2022-12-29T07:02:00;497.80;;;478.30;;
13250;SDS011;6692;50.710;7.180;2022-12-29T07:04:01;506.50;;;486.67;;
13250;SDS011;6692;50.710;7.180;2022-12-29T07:06:03;488.63;;;469.60;;
13250;SDS011;6692;50.710;7.180;2022-12-29T07:08:04;508.60;;;488.33;;
13250;SDS011;6692;50.710;7.180;2022-12-29T07:10:05;515.57;;;495.23;;
13250;SDS011;6692;50.710;7.180;2022-12-29T07:12:06;512.27;;;492.03;;
13250;SDS011;6692;50.710;7.180;2022-12-29T07:14:06;515.10;;;494.87;;
13250;SDS011;6692;50.710;7.180;2022-12-29T07:16:08;510.03;;;490.00;;
13250;SDS011;6692;50.710;7.180;2022-12-29T07:18:08;514.00;;;493.83;;
13250;SDS011;6692;50.710;7.180;2022-12-29T07:20:09;523.13;;;502.70;;
13250;SDS011;6692;50.710;7.180;2022-12-29T07:22:09;491.30;;;472.00;;
13250;SDS011;6692;50.710;7.180;2022-12-29T07:24:11;504.40;;;484.53;;
13250;SDS011;6692;50.710;7.180;2022-12-29T07:26:13;498.83;;;479.57;;
13250;SDS011;6692;50.710;7.180;2022-12-29T07:28:12;497.50;;;478.30;;
13250;SDS011;6692;50.710;7.180;2022-12-29T07:30:13;494.73;;;475.57;;
13250;SDS011;6692;50.710;7.180;2022-12-29T07:32:14;491.67;;;473.03;;
13250;SDS011;6692;50.710;7.180;2022-12-29T07:34:14;494.57;;;475.50;;
13250;SDS011;6692;50.710;7.180;2022-12-29T07:36:15;487.13;;;468.57;;
13250;SDS011;6692;50.710;7.180;2022-12-29T07:38:15;488.73;;;469.60;;
13250;SDS011;6692;50.710;7.180;2022-12-29T07:40:16;480.80;;;462.30;;
13250;SDS011;6692;50.710;7.180;2022-12-29T07:42:18;482.47;;;464.00;;
13250;SDS011;6692;50.710;7.180;2022-12-29T07:44:18;496.30;;;477.23;;
13250;SDS011;6692;50.710;7.180;2022-12-29T07:46:19;486.83;;;467.97;;
13250;SDS011;6692;50.710;7.180;2022-12-29T07:48:20;466.63;;;448.67;;
13250;SDS011;6692;50.710;7.180;2022-12-29T07:50:20;466.77;;;449.03;;
13250;SDS011;6692;50.710;7.180;2022-12-29T07:52:21;481.53;;;463.10;;
13250;SDS011;6692;50.710;7.180;2022-12-29T07:54:22;464.40;;;446.87;;
13250;SDS011;6692;50.710;7.180;2022-12-29T07:56:22;457.50;;;440.23;;
13250;SDS011;6692;50.710;7.180;2022-12-29T07:58:23;426.27;;;410.27;;
13250;SDS011;6692;50.710;7.180;2022-12-29T08:00:24;434.63;;;418.50;;
13250;SDS011;6692;50.710;7.180;2022-12-29T08:02:25;423.13;;;407.37;;
13250;SDS011;6692;50.710;7.180;2022-12-29T08:04:27;407.00;;;392.07;;
13250;SDS011;6692;50.710;7.180;2022-12-29T08:06:27;426.87;;;411.03;;
13250;SDS011;6692;50.710;7.180;2022-12-29T08:08:28;403.57;;;388.97;;
13250;SDS011;6692;50.710;7.180;2022-12-29T08:10:29;410.80;;;395.60;;
13250;SDS011;6692;50.710;7.180;2022-12-29T08:12:29;419.40;;;404.03;;
13250;SDS011;6692;50.710;7.180;2022-12-29T08:14:30;401.07;;;386.37;;
13250;SDS011;6692;50.710;7.180;2022-12-29T08:16:31;403.93;;;389.40;;
13250;SDS011;6692;50.710;7.180;2022-12-29T08:18:31;372.10;;;358.70;;
13250;SDS011;6692;50.710;7.180;2022-12-29T08:20:32;363.43;;;350.47;;
13250;SDS011;6692;50.710;7.180;2022-12-29T08:22:33;378.40;;;364.60;;
13250;SDS011;6692;50.710;7.180;2022-12-29T08:24:33;372.37;;;358.87;;
13250;SDS011;6692;50.710;7.180;2022-12-29T08:26:34;380.37;;;366.70;;
13250;SDS011;6692;50.710;7.180;2022-12-29T08:28:35;384.37;;;370.47;;
13250;SDS011;6692;50.710;7.180;2022-12-29T08:30:38;368.03;;;354.90;;
13250;SDS011;6692;50.710;7.180;2022-12-29T08:32:38;373.33;;;359.80;;
13250;SDS011;6692;50.710;7.180;2022-12-29T08:34:38;377.03;;;363.53;;
13250;SDS011;6692;50.710;7.180;2022-12-29T08:36:39;377.43;;;363.93;;
13250;SDS011;6692;50.710;7.180;2022-12-29T08:38:40;352.53;;;339.97;;
13250;SDS011;6692;50.710;7.180;2022-12-29T08:40:41;347.83;;;335.47;;
13250;SDS011;6692;50.710;7.180;2022-12-29T08:42:42;360.90;;;347.83;;
13250;SDS011;6692;50.710;7.180;2022-12-29T08:44:42;345.37;;;333.07;;
13250;SDS011;6692;50.710;7.180;2022-12-29T08:46:43;345.93;;;333.67;;
13250;SDS011;6692;50.710;7.180;2022-12-29T08:48:44;347.47;;;335.10;;
13250;SDS011;6692;50.710;7.180;2022-12-29T08:50:45;346.20;;;333.83;;
13250;SDS011;6692;50.710;7.180;2022-12-29T08:52:45;335.97;;;324.00;;
13250;SDS011;6692;50.710;7.180;2022-12-29T08:54:46;326.93;;;315.53;;
13250;SDS011;6692;50.710;7.180;2022-12-29T08:56:47;345.17;;;332.80;;
13250;SDS011;6692;50.710;7.180;2022-12-29T08:58:48;350.47;;;338.00;;
13250;SDS011;6692;50.710;7.180;2022-12-29T09:00:49;308.97;;;298.30;;
13250;SDS011;6692;50.710;7.180;2022-12-29T09:02:49;320.80;;;309.40;;
13250;SDS011;6692;50.710;7.180;2022-12-29T09:04:50;312.70;;;301.77;;
13250;SDS011;6692;50.710;7.180;2022-12-29T09:06:51;329.23;;;317.50;;
13250;SDS011;6692;50.710;7.180;2022-12-29T09:08:53;345.10;;;332.83;;
13250;SDS011;6692;50.710;7.180;2022-12-29T09:10:52;328.57;;;316.93;;
13250;SDS011;6692;50.710;7.180;2022-12-29T09:12:53;316.93;;;305.80;;
13250;SDS011;6692;50.710;7.180;2022-12-29T09:14:53;328.53;;;317.10;;
13250;SDS011;6692;50.710;7.180;2022-12-29T09:16:54;347.83;;;335.53;;
13250;SDS011;6692;50.710;7.180;2022-12-29T09:19:01;285.10;;;275.37;;
13250;SDS011;6692;50.710;7.180;2022-12-29T09:21:02;292.90;;;282.50;;
13250;SDS011;6692;50.710;7.180;2022-12-29T09:23:02;284.37;;;274.70;;
13250;SDS011;6692;50.710;7.180;2022-12-29T09:25:05;284.53;;;274.70;;
13250;SDS011;6692;50.710;7.180;2022-12-29T09:27:06;293.73;;;283.67;;
13250;SDS011;6692;50.710;7.180;2022-12-29T09:29:07;269.47;;;260.00;;
13250;SDS011;6692;50.710;7.180;2022-12-29T09:31:08;284.80;;;275.03;;
13250;SDS011;6692;50.710;7.180;2022-12-29T09:33:09;277.53;;;267.77;;
13250;SDS011;6692;50.710;7.180;2022-12-29T09:35:09;244.87;;;236.53;;
13250;SDS011;6692;50.710;7.180;2022-12-29T09:37:10;249.53;;;241.03;;
13250;SDS011;6692;50.710;7.180;2022-12-29T09:39:12;249.90;;;241.27;;
13250;SDS011;6692;50.710;7.180;2022-12-29T09:41:16;222.97;;;215.30;;
13250;SDS011;6692;50.710;7.180;2022-12-29T09:45:36;216.40;;;208.77;;
13250;SDS011;6692;50.710;7.180;2022-12-29T09:47:37;224.57;;;216.93;;
13250;SDS011;6692;50.710;7.180;2022-12-29T09:49:42;203.77;;;196.40;;
13250;SDS011;6692;50.710;7.180;2022-12-29T09:51:41;213.17;;;205.77;;
13250;SDS011;6692;50.710;7.180;2022-12-29T09:53:43;209.27;;;201.97;;
13250;SDS011;6692;50.710;7.180;2022-12-29T09:55:45;198.53;;;191.33;;
13250;SDS011;6692;50.710;7.180;2022-12-29T09:57:46;202.63;;;195.63;;
13250;SDS011;6692;50.710;7.180;2022-12-29T09:59:48;201.43;;;194.10;;
13250;SDS011;6692;50.710;7.180;2022-12-29T10:01:51;200.87;;;194.00;;
13250;SDS011;6692;50.710;7.180;2022-12-29T10:03:56;223.40;;;215.40;;
13250;SDS011;6692;50.710;7.180;2022-12-29T10:06:00;222.77;;;214.93;;
13250;SDS011;6692;50.710;7.180;2022-12-29T10:08:20;198.83;;;192.00;;
13250;SDS011;6692;50.710;7.180;2022-12-29T10:10:23;221.67;;;213.93;;
13250;SDS011;6692;50.710;7.180;2022-12-29T10:12:29;162.33;;;156.60;;
13250;SDS011;6692;50.710;7.180;2022-12-29T10:15:31;140.30;;;135.20;;
13250;SDS011;6692;50.710;7.180;2022-12-29T10:17:09;134.33;;;129.57;;
13250;SDS011;6692;50.710;7.180;2022-12-29T10:19:15;199.57;;;192.60;;
13250;SDS011;6692;50.710;7.180;2022-12-29T10:23:26;194.40;;;187.67;;
13250;SDS011;6692;50.710;7.180;2022-12-29T10:25:26;184.17;;;177.60;;
13250;SDS011;6692;50.710;7.180;2022-12-29T10:27:26;172.87;;;166.80;;
13250;SDS011;6692;50.710;7.180;2022-12-29T10:29:32;162.00;;;156.17;;
13250;SDS011;6692;50.710;7.180;2022-12-29T10:31:32;205.03;;;197.97;;
13250;SDS011;6692;50.710;7.180;2022-12-29T10:33:31;209.83;;;202.37;;
13250;SDS011;6692;50.710;7.180;2022-12-29T10:35:32;163.50;;;157.73;;
13250;SDS011;6692;50.710;7.180;2022-12-29T10:37:36;206.80;;;199.67;;
13250;SDS011;6692;50.710;7.180;2022-12-29T10:39:55;191.80;;;185.10;;
13250;SDS011;6692;50.710;7.180;2022-12-29T10:42:01;200.87;;;193.80;;
13250;SDS011;6692;50.710;7.180;2022-12-29T10:43:59;175.40;;;169.03;;
13250;SDS011;6692;50.710;7.180;2022-12-29T10:46:03;154.00;;;148.30;;
13250;SDS011;6692;50.710;7.180;2022-12-29T10:48:03;156.10;;;150.20;;
13250;SDS011;6692;50.710;7.180;2022-12-29T10:50:03;163.23;;;157.23;;
13250;SDS011;6692;50.710;7.180;2022-12-29T10:52:05;131.27;;;126.30;;
13250;SDS011;6692;50.710;7.180;2022-12-29T10:54:14;151.60;;;146.07;;
13250;SDS011;6692;50.710;7.180;2022-12-29T10:56:29;107.77;;;103.77;;
13250;SDS011;6692;50.710;7.180;2022-12-29T10:58:33;89.70;;;86.30;;
13250;SDS011;6692;50.710;7.180;2022-12-29T11:00:34;112.67;;;108.47;;
13250;SDS011;6692;50.710;7.180;2022-12-29T11:04:52;88.63;;;85.17;;
13250;SDS011;6692;50.710;7.180;2022-12-29T11:07:04;114.27;;;109.97;;
13250;SDS011;6692;50.710;7.180;2022-12-29T11:09:10;72.83;;;69.87;;
13250;SDS011;6692;50.710;7.180;2022-12-29T11:11:10;77.10;;;73.93;;
13250;SDS011;6692;50.710;7.180;2022-12-29T11:13:13;60.17;;;57.80;;
13250;SDS011;6692;50.710;7.180;2022-12-29T11:15:17;59.93;;;57.43;;
13250;SDS011;6692;50.710;7.180;2022-12-29T11:17:18;50.57;;;48.57;;
13250;SDS011;6692;50.710;7.180;2022-12-29T11:19:19;50.40;;;48.07;;
13250;SDS011;6692;50.710;7.180;2022-12-29T11:21:26;68.13;;;65.53;;
13250;SDS011;6692;50.710;7.180;2022-12-29T11:23:30;53.70;;;51.27;;
13250;SDS011;6692;50.710;7.180;2022-12-29T11:25:31;41.37;;;39.63;;
13250;SDS011;6692;50.710;7.180;2022-12-29T11:27:32;44.13;;;42.20;;
13250;SDS011;6692;50.710;7.180;2022-12-29T11:29:38;61.17;;;58.77;;
13250;SDS011;6692;50.710;7.180;2022-12-29T11:31:40;74.67;;;71.87;;
13250;SDS011;6692;50.710;7.180;2022-12-29T11:33:40;50.30;;;48.23;;
13250;SDS011;6692;50.710;7.180;2022-12-29T11:35:41;50.13;;;47.97;;
13250;SDS011;6692;50.710;7.180;2022-12-29T11:37:41;77.23;;;74.23;;
13250;SDS011;6692;50.710;7.180;2022-12-29T11:39:49;65.83;;;62.93;;
13250;SDS011;6692;50.710;7.180;2022-12-29T11:41:52;56.87;;;54.40;;
13250;SDS011;6692;50.710;7.180;2022-12-29T11:43:53;90.93;;;87.43;;
13250;SDS011;6692;50.710;7.180;2022-12-29T11:45:54;111.20;;;107.07;;
13250;SDS011;6692;50.710;7.180;2022-12-29T11:47:56;46.57;;;44.60;;
13250;SDS011;6692;50.710;7.180;2022-12-29T11:49:57;50.87;;;48.90;;
13250;SDS011;6692;50.710;7.180;2022-12-29T11:51:58;83.73;;;80.43;;
13250;SDS011;6692;50.710;7.180;2022-12-29T11:53:59;46.93;;;45.07;;
13250;SDS011;6692;50.710;7.180;2022-12-29T11:56:01;47.87;;;45.70;;
13250;SDS011;6692;50.710;7.180;2022-12-29T11:58:02;46.37;;;44.33;;
13250;SDS011;6692;50.710;7.180;2022-12-29T12:00:09;48.33;;;46.33;;
13250;SDS011;6692;50.710;7.180;2022-12-29T12:04:15;74.97;;;72.17;;
13250;SDS011;6692;50.710;7.180;2022-12-29T12:06:16;63.57;;;61.13;;